createdAt,value
2023-08-12T00:00:23.020Z,20.16
2023-08-12T00:02:47.539Z,20.14
2023-08-12T00:04:50.220Z,20.17
2023-08-12T00:06:52.946Z,20.19
2023-08-12T00:08:56.453Z,20.20
2023-08-12T00:10:59.227Z,20.19
2023-08-12T00:13:03.230Z,20.20
2023-08-12T00:15:11.743Z,20.19
2023-08-12T00:17:14.506Z,20.20
2023-08-12T00:19:22.650Z,20.18
2023-08-12T00:21:27.396Z,20.17
2023-08-12T00:23:31.994Z,20.14
2023-08-12T00:25:34.796Z,20.08
2023-08-12T00:27:38.990Z,20.03
2023-08-12T00:29:42.801Z,20.00
2023-08-12T00:31:45.829Z,19.92
2023-08-12T00:33:49.617Z,19.86
2023-08-12T00:35:52.805Z,19.81
2023-08-12T00:37:56.627Z,19.75
2023-08-12T00:39:59.836Z,19.68
2023-08-12T00:42:04.255Z,19.64
2023-08-12T00:44:08.220Z,19.60
2023-08-12T00:46:14.623Z,19.58
2023-08-12T00:48:18.992Z,19.56
2023-08-12T00:50:23.592Z,19.56
2023-08-12T00:52:27.109Z,19.54
2023-08-12T00:54:30.672Z,19.53
2023-08-12T00:56:36.796Z,19.55
2023-08-12T00:58:40.970Z,19.57
2023-08-12T01:00:43.932Z,19.58
2023-08-12T01:02:56.469Z,19.58
2023-08-12T01:05:00.197Z,19.60
2023-08-12T01:07:04.751Z,19.60
2023-08-12T01:09:11.174Z,19.60
2023-08-12T01:11:20.543Z,19.60
2023-08-12T01:14:08.913Z,19.60
2023-08-12T01:16:21.033Z,19.58
2023-08-12T01:18:32.599Z,19.55
2023-08-12T01:20:36.857Z,19.55
2023-08-12T01:22:41.763Z,19.56
2023-08-12T01:24:45.771Z,19.54
2023-08-12T01:26:50.025Z,19.53
2023-08-12T01:28:54.502Z,19.51
2023-08-12T01:31:03.590Z,19.48
2023-08-12T01:33:13.450Z,19.47
2023-08-12T01:35:21.056Z,19.45
2023-08-12T01:37:33.415Z,19.46
2023-08-12T01:39:38.874Z,19.46
2023-08-12T01:41:41.778Z,19.44
2023-08-12T01:43:45.732Z,19.42
2023-08-12T01:45:48.475Z,19.44
2023-08-12T01:47:52.445Z,19.47
2023-08-12T01:50:00.569Z,19.46
2023-08-12T01:52:03.961Z,19.43
2023-08-12T01:54:07.134Z,19.41
2023-08-12T01:56:11.078Z,19.39
2023-08-12T01:58:16.027Z,19.37
2023-08-12T02:00:20.914Z,19.36
2023-08-12T02:02:25.772Z,19.33
2023-08-12T02:04:32.304Z,19.31
2023-08-12T02:06:35.551Z,19.30
2023-08-12T02:08:39.342Z,19.30
2023-08-12T02:10:44.307Z,19.32
2023-08-12T02:12:47.173Z,19.30
2023-08-12T02:14:49.887Z,19.29
2023-08-12T02:16:56.194Z,19.28
2023-08-12T02:18:58.791Z,19.27
2023-08-12T02:21:05.873Z,19.27
2023-08-12T02:23:09.727Z,19.25
2023-08-12T02:25:13.514Z,19.24
2023-08-12T02:27:16.790Z,19.22
2023-08-12T02:29:19.587Z,19.19
2023-08-12T02:31:22.197Z,19.21
2023-08-12T02:33:27.079Z,19.23
2023-08-12T02:35:31.282Z,19.22
2023-08-12T02:37:36.369Z,19.21
2023-08-12T02:39:40.181Z,19.20
2023-08-12T02:41:43.071Z,19.20
2023-08-12T02:43:46.898Z,19.18
2023-08-12T02:45:49.667Z,19.13
2023-08-12T02:47:53.155Z,19.09
2023-08-12T02:49:57.865Z,19.06
2023-08-12T02:52:03.818Z,19.03
2023-08-12T02:54:06.496Z,19.03
2023-08-12T02:56:09.909Z,19.01
2023-08-12T02:58:14.496Z,18.97
2023-08-12T03:00:18.817Z,18.97
2023-08-12T03:02:21.919Z,18.95
2023-08-12T03:04:26.323Z,18.92
2023-08-12T03:06:30.097Z,18.88
2023-08-12T03:08:34.533Z,18.86
2023-08-12T03:10:39.454Z,18.83
2023-08-12T03:12:43.687Z,18.80
2023-08-12T03:14:48.714Z,18.76
2023-08-12T03:16:52.320Z,18.77
2023-08-12T03:18:55.402Z,18.78
2023-08-12T03:20:58.634Z,18.77
2023-08-12T03:23:01.650Z,18.77
2023-08-12T03:25:05.959Z,18.73
2023-08-12T03:27:09.683Z,18.71
2023-08-12T03:29:17.721Z,18.70
2023-08-12T03:31:20.821Z,18.68
2023-08-12T03:33:28.161Z,18.68
2023-08-12T03:35:31.375Z,18.69
2023-08-12T03:37:36.908Z,18.72
2023-08-12T03:39:42.325Z,18.70
2023-08-12T03:41:47.423Z,18.67
2023-08-12T03:43:51.100Z,18.63
2023-08-12T03:45:54.209Z,18.59
2023-08-12T03:47:58.219Z,18.59
2023-08-12T03:50:01.427Z,18.59
2023-08-12T03:52:09.251Z,18.60
2023-08-12T03:54:12.954Z,18.61
2023-08-12T03:56:17.721Z,18.60
2023-08-12T03:58:21.065Z,18.59
2023-08-12T04:00:25.847Z,18.57
2023-08-12T04:02:32.464Z,18.55
2023-08-12T04:04:37.234Z,18.54
2023-08-12T04:06:40.228Z,18.53
2023-08-12T04:08:43.679Z,18.51
2023-08-12T04:10:48.777Z,18.51
2023-08-12T04:12:52.159Z,18.51
2023-08-12T04:14:55.556Z,18.53
2023-08-12T04:16:59.427Z,18.56
2023-08-12T04:19:02.550Z,18.57
2023-08-12T04:21:06.949Z,18.59
2023-08-12T04:23:09.827Z,18.61
2023-08-12T04:25:12.568Z,18.65
2023-08-12T04:27:17.443Z,18.67
2023-08-12T04:29:20.346Z,18.69
2023-08-12T04:31:23.844Z,18.70
2023-08-12T04:33:28.085Z,18.73
2023-08-12T04:35:34.773Z,18.74
2023-08-12T04:37:39.744Z,18.75
2023-08-12T04:39:43.736Z,18.76
2023-08-12T04:41:46.505Z,18.76
2023-08-12T04:43:50.278Z,18.77
2023-08-12T04:45:54.013Z,18.77
2023-08-12T04:47:58.449Z,18.77
2023-08-12T04:50:01.383Z,18.77
2023-08-12T04:52:05.354Z,18.81
2023-08-12T04:54:09.027Z,18.84
2023-08-12T04:56:11.956Z,18.86
2023-08-12T04:58:15.328Z,18.89
2023-08-12T05:00:18.834Z,18.91
2023-08-12T05:02:22.457Z,18.93
2023-08-12T05:04:25.746Z,18.95
2023-08-12T05:06:29.659Z,18.93
2023-08-12T05:08:33.302Z,18.93
2023-08-12T05:10:36.415Z,18.92
2023-08-12T05:12:40.316Z,18.93
2023-08-12T05:14:44.007Z,18.96
2023-08-12T05:16:46.942Z,18.98
2023-08-12T05:18:51.468Z,19.02
2023-08-12T05:20:55.593Z,19.05
2023-08-12T05:22:59.906Z,19.10
2023-08-12T05:25:05.034Z,19.13
2023-08-12T05:27:08.177Z,19.14
2023-08-12T05:29:11.403Z,19.15
2023-08-12T05:31:15.300Z,19.16
2023-08-12T05:33:18.390Z,19.17
2023-08-12T05:35:22.154Z,19.18
2023-08-12T05:37:26.565Z,19.20
2023-08-12T05:39:29.239Z,19.21
2023-08-12T05:41:33.726Z,19.23
2023-08-12T05:43:38.644Z,19.25
2023-08-12T05:45:41.421Z,19.26
2023-08-12T05:47:47.999Z,19.27
2023-08-12T05:49:52.483Z,19.26
2023-08-12T05:51:55.812Z,19.25
2023-08-12T05:54:00.896Z,19.25
2023-08-12T05:56:03.892Z,19.29
2023-08-12T05:58:08.165Z,19.32
2023-08-12T06:00:14.499Z,19.38
2023-08-12T06:02:28.105Z,19.42
2023-08-12T06:04:31.081Z,19.46
2023-08-12T06:06:34.285Z,19.50
2023-08-12T06:08:40.272Z,19.54
2023-08-12T06:10:43.101Z,19.57
2023-08-12T06:12:49.830Z,19.60
2023-08-12T06:14:53.278Z,19.60
2023-08-12T06:16:59.279Z,19.60
2023-08-12T06:19:03.618Z,19.59
2023-08-12T06:21:07.957Z,19.60
2023-08-12T06:23:11.943Z,19.62
2023-08-12T06:25:15.279Z,19.64
2023-08-12T06:27:20.589Z,19.68
2023-08-12T06:29:25.936Z,19.72
2023-08-12T06:31:32.211Z,19.72
2023-08-12T06:33:35.579Z,19.71
2023-08-12T06:35:41.358Z,19.67
2023-08-12T06:37:47.074Z,19.67
2023-08-12T06:39:50.153Z,19.71
2023-08-12T06:41:53.853Z,19.78
2023-08-12T06:43:58.784Z,19.81
2023-08-12T06:46:03.075Z,19.85
2023-08-12T06:48:08.494Z,19.92
2023-08-12T06:50:11.544Z,19.98
2023-08-12T06:52:18.013Z,20.01
2023-08-12T06:54:24.028Z,20.04
2023-08-12T06:56:26.914Z,20.08
2023-08-12T06:58:30.361Z,20.09
2023-08-12T07:00:33.553Z,20.12
2023-08-12T07:02:43.962Z,20.12
2023-08-12T07:04:47.942Z,20.17
2023-08-12T07:06:51.132Z,20.20
2023-08-12T07:08:55.035Z,20.25
2023-08-12T07:10:57.988Z,20.30
2023-08-12T07:13:01.992Z,20.34
2023-08-12T07:15:09.081Z,20.39
2023-08-12T07:17:12.580Z,20.45
2023-08-12T07:19:17.155Z,20.46
2023-08-12T07:21:22.047Z,20.46
2023-08-12T07:23:28.310Z,20.48
2023-08-12T07:25:31.387Z,20.51
2023-08-12T07:27:35.013Z,20.56
2023-08-12T07:29:43.090Z,20.61
2023-08-12T07:31:50.379Z,20.65
2023-08-12T07:33:56.950Z,20.71
2023-08-12T07:36:00.589Z,20.76
2023-08-12T07:38:03.420Z,20.80
2023-08-12T07:40:06.785Z,20.84
2023-08-12T07:42:10.968Z,20.85
2023-08-12T07:44:14.219Z,20.86
2023-08-12T07:46:17.049Z,20.91
2023-08-12T07:48:20.993Z,20.95
2023-08-12T07:50:27.080Z,20.96
2023-08-12T07:52:34.156Z,20.95
2023-08-12T07:54:39.052Z,20.95
2023-08-12T07:56:42.121Z,20.98
2023-08-12T07:58:47.310Z,21.00
2023-08-12T08:00:54.842Z,21.04
2023-08-12T08:02:57.631Z,21.08
2023-08-12T08:05:21.997Z,21.09
2023-08-12T08:07:24.631Z,21.11
2023-08-12T08:09:29.051Z,21.13
2023-08-12T08:11:35.803Z,21.13
2023-08-12T08:13:44.857Z,21.13
2023-08-12T08:15:49.482Z,21.14
2023-08-12T08:17:55.185Z,21.19
2023-08-12T08:19:58.557Z,21.22
2023-08-12T08:22:07.321Z,21.23
2023-08-12T08:24:21.491Z,21.28
2023-08-12T08:26:30.056Z,21.32
2023-08-12T08:28:41.828Z,21.36
2023-08-12T08:31:08.527Z,21.43
2023-08-12T08:33:15.436Z,21.50
2023-08-12T08:35:19.560Z,21.57
2023-08-12T08:37:24.176Z,21.62
2023-08-12T08:39:37.102Z,21.68
2023-08-12T08:41:50.894Z,21.73
2023-08-12T08:43:56.966Z,21.80
2023-08-12T08:46:04.495Z,21.86
2023-08-12T08:48:09.811Z,21.89
2023-08-12T08:50:13.426Z,21.89
2023-08-12T08:52:17.487Z,21.92
2023-08-12T08:54:20.824Z,21.94
2023-08-12T08:56:24.920Z,21.93
2023-08-12T08:58:31.473Z,21.89
2023-08-12T09:00:38.672Z,21.84
2023-08-12T09:02:45.926Z,21.79
2023-08-12T09:04:51.957Z,21.77
2023-08-12T09:06:58.040Z,21.77
2023-08-12T09:09:07.338Z,21.76
2023-08-12T09:11:13.694Z,21.74
2023-08-12T09:13:21.024Z,21.76
2023-08-12T09:15:26.652Z,21.80
2023-08-12T09:17:33.929Z,21.86
2023-08-12T09:19:38.935Z,21.90
2023-08-12T09:21:44.944Z,21.96
2023-08-12T09:23:48.793Z,22.02
2023-08-12T09:25:56.936Z,22.09
2023-08-12T09:28:04.761Z,22.16
2023-08-12T09:30:11.514Z,22.19
2023-08-12T09:32:20.138Z,22.21
2023-08-12T09:34:25.472Z,22.25
2023-08-12T09:36:34.133Z,22.31
2023-08-12T09:38:42.867Z,22.39
2023-08-12T09:40:55.701Z,22.45
2023-08-12T09:43:02.022Z,22.50
2023-08-12T09:45:06.422Z,22.56
2023-08-12T09:47:11.640Z,22.60
2023-08-12T09:49:22.718Z,22.63
2023-08-12T09:51:27.626Z,22.66
2023-08-12T09:53:31.764Z,22.67
2023-08-12T09:55:37.600Z,22.72
2023-08-12T09:57:43.931Z,22.79
2023-08-12T09:59:50.643Z,22.89
2023-08-12T10:01:57.487Z,22.96
2023-08-12T10:04:07.845Z,23.01
2023-08-12T10:06:16.878Z,23.07
2023-08-12T10:08:21.061Z,23.10
2023-08-12T10:10:27.940Z,23.13
2023-08-12T10:12:40.900Z,23.11
2023-08-12T10:14:48.871Z,23.10
2023-08-12T10:17:04.388Z,23.11
2023-08-12T10:19:15.073Z,23.14
2023-08-12T10:21:22.818Z,23.20
2023-08-12T10:23:33.595Z,23.26
2023-08-12T10:25:39.500Z,23.32
2023-08-12T10:27:43.540Z,23.38
2023-08-12T10:29:50.784Z,23.48
2023-08-12T10:31:54.540Z,23.56
2023-08-12T10:34:03.052Z,23.61
2023-08-12T10:38:34.050Z,23.73
2023-08-12T10:40:38.627Z,23.82
2023-08-12T10:42:46.270Z,23.92
2023-08-12T10:45:02.314Z,24.00
2023-08-12T10:47:11.948Z,24.08
2023-08-12T10:49:16.380Z,24.13
2023-08-12T10:51:20.062Z,24.16
2023-08-12T10:53:32.932Z,24.20
2023-08-12T10:55:42.217Z,24.24
2023-08-12T10:58:02.865Z,24.25
2023-08-12T11:00:25.692Z,24.26
2023-08-12T11:02:36.838Z,24.28
2023-08-12T11:04:44.427Z,24.33
2023-08-12T11:06:48.662Z,24.38
2023-08-12T11:08:57.872Z,24.42
2023-08-12T11:11:03.264Z,24.47
2023-08-12T11:13:06.271Z,24.56
2023-08-12T11:15:12.008Z,24.65
2023-08-12T11:17:18.765Z,24.72
2023-08-12T11:19:27.047Z,24.83
2023-08-12T11:21:42.405Z,24.90
2023-08-12T11:23:51.055Z,24.93
2023-08-12T11:26:02.106Z,24.95
2023-08-12T11:28:16.096Z,24.98
2023-08-12T11:30:21.528Z,25.01
2023-08-12T11:32:25.010Z,25.03
2023-08-12T11:34:30.764Z,25.07
2023-08-12T11:36:34.866Z,25.08
2023-08-12T11:38:54.891Z,25.08
2023-08-12T11:41:06.021Z,25.15
2023-08-12T11:43:11.279Z,25.27
2023-08-12T11:45:26.103Z,25.34
2023-08-12T11:47:30.808Z,25.41
2023-08-12T11:49:33.944Z,25.42
2023-08-12T11:51:59.604Z,25.47
2023-08-12T11:54:06.570Z,25.54
2023-08-12T11:56:17.881Z,25.60
2023-08-12T11:58:52.591Z,25.63
2023-08-12T12:01:03.227Z,25.67
2023-08-12T12:03:09.051Z,25.71
2023-08-12T12:05:15.500Z,25.80
2023-08-12T12:07:25.422Z,25.88
2023-08-12T12:09:42.673Z,25.96
2023-08-12T12:11:49.378Z,26.03
2023-08-12T12:13:55.246Z,26.06
2023-08-12T12:16:00.053Z,26.07
2023-08-12T12:18:11.990Z,26.07
2023-08-12T12:20:15.872Z,26.06
2023-08-12T12:22:20.669Z,26.06
2023-08-12T12:24:36.324Z,26.08
2023-08-12T12:26:43.328Z,26.14
2023-08-12T12:28:47.895Z,26.21
2023-08-12T12:30:51.157Z,26.26
2023-08-12T12:32:55.209Z,26.36
2023-08-12T12:35:01.433Z,26.46
2023-08-12T12:37:04.554Z,26.53
2023-08-12T12:39:09.211Z,26.58
2023-08-12T12:41:12.366Z,26.66
2023-08-12T12:43:16.945Z,26.71
2023-08-12T12:45:20.028Z,26.71
2023-08-12T12:47:32.653Z,26.71
2023-08-12T12:49:42.508Z,26.70
2023-08-12T12:51:46.355Z,26.72
2023-08-12T12:53:49.643Z,26.72
2023-08-12T12:55:53.564Z,26.69
2023-08-12T12:57:58.482Z,26.66
2023-08-12T13:00:06.951Z,26.63
2023-08-12T13:02:11.866Z,26.61
2023-08-12T13:04:17.322Z,26.59
2023-08-12T13:06:32.876Z,26.58
2023-08-12T13:08:37.822Z,26.56
2023-08-12T13:10:43.733Z,26.51
2023-08-12T13:12:54.146Z,26.44
2023-08-12T13:15:00.303Z,26.39
2023-08-12T13:17:08.150Z,26.35
2023-08-12T13:19:11.943Z,26.30
2023-08-12T13:21:17.519Z,26.23
2023-08-12T13:23:22.194Z,26.15
2023-08-12T13:25:26.039Z,26.05
2023-08-12T13:27:29.412Z,25.89
2023-08-12T13:29:33.637Z,25.56
2023-08-12T13:31:36.730Z,25.14
2023-08-12T13:33:40.568Z,24.79
2023-08-12T13:35:44.509Z,24.44
2023-08-12T13:37:50.412Z,24.09
2023-08-12T13:39:53.842Z,23.72
2023-08-12T13:41:59.129Z,23.34
2023-08-12T13:44:03.472Z,22.96
2023-08-12T13:46:43.305Z,22.62
2023-08-12T13:48:48.771Z,22.30
2023-08-12T13:50:55.049Z,22.21
2023-08-12T13:53:00.870Z,22.16
2023-08-12T13:55:16.270Z,22.11
2023-08-12T13:57:22.018Z,22.12
2023-08-12T13:59:25.014Z,22.12
2023-08-12T14:01:29.115Z,22.07
2023-08-12T14:03:35.166Z,22.04
2023-08-12T14:05:55.558Z,22.08
2023-08-12T14:08:01.592Z,22.11
2023-08-12T14:10:07.162Z,22.12
2023-08-12T14:12:15.665Z,22.14
2023-08-12T14:14:28.796Z,22.13
2023-08-12T14:16:59.373Z,22.13
2023-08-12T14:19:18.935Z,22.13
2023-08-12T14:21:25.470Z,22.12
2023-08-12T14:23:32.649Z,22.11
2023-08-12T14:25:37.971Z,22.13
2023-08-12T14:27:46.852Z,22.14
2023-08-12T14:29:51.790Z,22.16
2023-08-12T14:31:54.845Z,22.15
2023-08-12T14:33:57.768Z,22.13
2023-08-12T14:36:04.374Z,22.13
2023-08-12T14:38:43.513Z,22.19
2023-08-12T14:40:49.811Z,22.27
2023-08-12T14:42:56.629Z,22.35
2023-08-12T14:45:08.203Z,22.43
2023-08-12T14:47:12.599Z,22.49
2023-08-12T14:49:19.588Z,22.52
2023-08-12T14:51:24.502Z,22.49
2023-08-12T14:54:06.766Z,22.51
2023-08-12T14:56:14.563Z,22.55
2023-08-12T14:58:20.477Z,22.64
2023-08-12T15:00:28.140Z,22.70
2023-08-12T15:02:42.292Z,22.72
2023-08-12T15:05:03.792Z,22.74
2023-08-12T15:07:11.360Z,22.74
2023-08-12T15:09:26.869Z,22.73
2023-08-12T15:11:31.554Z,22.78
2023-08-12T15:13:37.946Z,22.86
2023-08-12T15:15:43.345Z,22.93
2023-08-12T15:17:46.420Z,22.96
2023-08-12T15:19:53.057Z,22.90
2023-08-12T15:21:57.609Z,22.85
2023-08-12T15:24:08.359Z,22.81
2023-08-12T15:26:29.343Z,22.75
2023-08-12T15:28:42.745Z,22.67
2023-08-12T15:30:56.848Z,22.63
2023-08-12T15:33:25.957Z,22.67
2023-08-12T15:35:30.313Z,22.76
2023-08-12T15:37:37.133Z,22.86
2023-08-12T15:39:42.823Z,22.95
2023-08-12T15:41:50.694Z,23.03
2023-08-12T15:43:55.038Z,23.09
2023-08-12T15:45:58.489Z,23.14
2023-08-12T15:48:04.041Z,23.19
2023-08-12T15:52:58.965Z,23.27
2023-08-12T15:55:04.292Z,23.29
2023-08-12T15:57:12.002Z,23.31
2023-08-12T15:59:23.445Z,23.33
2023-08-12T16:01:38.658Z,23.33
2023-08-12T16:03:45.812Z,23.31
2023-08-12T16:05:59.004Z,23.30
2023-08-12T16:08:12.665Z,23.32
2023-08-12T16:10:16.949Z,23.35
2023-08-12T16:12:34.207Z,23.38
2023-08-12T16:14:41.974Z,23.43
2023-08-12T16:16:47.003Z,23.56
2023-08-12T16:18:53.325Z,23.81
2023-08-12T16:21:00.630Z,24.01
2023-08-12T16:23:05.356Z,24.25
2023-08-12T16:25:11.103Z,24.54
2023-08-12T16:27:15.959Z,24.65
2023-08-12T16:29:21.307Z,24.84
2023-08-12T16:33:57.324Z,25.35
2023-08-12T16:36:03.897Z,25.62
2023-08-12T16:38:20.121Z,25.81
2023-08-12T16:40:30.095Z,25.91
2023-08-12T16:42:55.384Z,25.97
2023-08-12T16:45:07.773Z,26.03
2023-08-12T16:47:32.596Z,25.93
2023-08-12T16:49:50.952Z,25.69
2023-08-12T16:52:07.536Z,25.49
2023-08-12T16:54:28.111Z,25.32
2023-08-12T16:56:32.826Z,25.15
2023-08-12T16:58:45.811Z,24.99
2023-08-12T17:00:51.018Z,24.86
2023-08-12T17:03:03.221Z,24.75
2023-08-12T17:05:29.639Z,24.64
2023-08-12T17:07:34.092Z,24.54
2023-08-12T17:09:42.678Z,24.43
2023-08-12T17:11:47.735Z,24.35
2023-08-12T17:13:53.419Z,24.25
2023-08-12T17:15:58.628Z,24.16
2023-08-12T17:18:05.704Z,24.08
2023-08-12T17:20:13.093Z,24.03
2023-08-12T17:22:17.232Z,24.01
2023-08-12T17:24:21.437Z,23.97
2023-08-12T17:26:54.967Z,23.92
2023-08-12T17:28:59.140Z,23.84
2023-08-12T17:31:07.401Z,23.77
2023-08-12T17:33:27.448Z,23.72
2023-08-12T17:36:23.338Z,23.68
2023-08-12T17:38:28.561Z,23.64
2023-08-12T17:40:33.108Z,23.61
2023-08-12T17:42:41.164Z,23.57
2023-08-12T17:44:45.941Z,23.54
2023-08-12T17:46:50.517Z,23.52
2023-08-12T17:48:58.078Z,23.48
2023-08-12T17:51:35.262Z,23.42
2023-08-12T17:53:48.101Z,23.36
2023-08-12T17:55:51.794Z,23.33
2023-08-12T17:58:00.593Z,23.32
2023-08-12T18:00:09.075Z,23.32
2023-08-12T18:02:21.384Z,23.30
2023-08-12T18:04:36.570Z,23.24
2023-08-12T18:06:48.438Z,23.21
2023-08-12T18:08:55.455Z,23.17
2023-08-12T18:11:05.135Z,23.13
2023-08-12T18:13:08.404Z,23.07
2023-08-12T18:15:14.273Z,23.03
2023-08-12T18:17:34.437Z,22.99
2023-08-12T18:19:40.844Z,22.95
2023-08-12T18:21:44.188Z,22.93
2023-08-12T18:23:50.156Z,22.91
2023-08-12T18:25:54.935Z,22.90
2023-08-12T18:27:58.547Z,22.86
2023-08-12T18:30:12.155Z,22.81
2023-08-12T18:34:42.031Z,22.77
2023-08-12T18:36:52.550Z,22.76
2023-08-12T18:38:58.369Z,22.75
2023-08-12T18:41:01.428Z,22.73
2023-08-12T18:43:07.053Z,22.72
2023-08-12T18:45:12.570Z,22.71
2023-08-12T18:47:17.861Z,22.70
2023-08-12T18:52:00.729Z,22.62
2023-08-12T18:54:05.888Z,22.61
2023-08-12T18:56:10.931Z,22.57
2023-08-12T18:58:14.853Z,22.52
2023-08-12T19:00:20.424Z,22.50
2023-08-12T19:02:24.506Z,22.48
2023-08-12T19:04:27.955Z,22.43
2023-08-12T19:06:34.749Z,22.40
2023-08-12T19:08:41.347Z,22.36
2023-08-12T19:10:54.700Z,22.36
2023-08-12T19:13:00.225Z,22.35
2023-08-12T19:15:13.290Z,22.34
2023-08-12T19:17:20.373Z,22.33
2023-08-12T19:19:27.335Z,22.32
2023-08-12T19:21:33.785Z,22.30
2023-08-12T19:23:58.706Z,22.26
2023-08-12T19:26:05.649Z,22.21
2023-08-12T19:28:09.712Z,22.18
2023-08-12T19:30:20.838Z,22.18
2023-08-12T19:32:28.352Z,22.15
2023-08-12T19:37:02.546Z,22.09
2023-08-12T19:39:20.965Z,22.04
2023-08-12T19:41:24.567Z,22.01
2023-08-12T19:43:32.920Z,21.98
2023-08-12T19:45:36.250Z,21.95
2023-08-12T19:47:41.663Z,21.89
2023-08-12T19:49:44.742Z,21.84
2023-08-12T19:51:47.520Z,21.84
2023-08-12T19:53:56.442Z,21.85
2023-08-12T19:56:25.347Z,21.85
2023-08-12T19:58:46.086Z,21.84
2023-08-12T20:00:51.006Z,21.81
2023-08-12T20:02:58.389Z,21.79
2023-08-12T20:05:02.479Z,21.75
2023-08-12T20:07:08.907Z,21.72
2023-08-12T20:09:15.081Z,21.73
2023-08-12T20:11:37.869Z,21.72
2023-08-12T20:13:51.060Z,21.71
2023-08-12T20:16:01.144Z,21.69
2023-08-12T20:18:18.007Z,21.63
2023-08-12T20:20:21.836Z,21.57
2023-08-12T20:22:27.773Z,21.51
2023-08-12T20:24:36.575Z,21.48
2023-08-12T20:26:42.269Z,21.48
2023-08-12T20:28:47.835Z,21.48
2023-08-12T20:30:52.637Z,21.48
2023-08-12T20:32:57.219Z,21.47
2023-08-12T20:35:03.844Z,21.47
2023-08-12T20:37:08.462Z,21.45
2023-08-12T20:39:14.783Z,21.44
2023-08-12T20:41:28.042Z,21.44
2023-08-12T20:43:41.489Z,21.46
2023-08-12T20:45:45.213Z,21.48
2023-08-12T20:47:50.675Z,21.47
2023-08-12T20:49:58.355Z,21.46
2023-08-12T20:52:03.636Z,21.44
2023-08-12T20:54:13.434Z,21.42
2023-08-12T20:56:51.668Z,21.40
2023-08-12T20:58:55.950Z,21.38
2023-08-12T21:01:04.131Z,21.36
2023-08-12T21:03:13.518Z,21.34
2023-08-12T21:05:22.575Z,21.30
2023-08-12T21:07:27.915Z,21.26
2023-08-12T21:09:37.750Z,21.23
2023-08-12T21:11:51.763Z,21.20
2023-08-12T21:13:58.686Z,21.20
2023-08-12T21:16:02.604Z,21.19
2023-08-12T21:18:23.161Z,21.19
2023-08-12T21:20:27.492Z,21.17
2023-08-12T21:22:30.843Z,21.16
2023-08-12T21:24:56.409Z,21.14
2023-08-12T21:27:01.253Z,21.13
2023-08-12T21:29:08.523Z,21.10
2023-08-12T21:31:13.884Z,21.10
2023-08-12T21:33:18.136Z,21.08
2023-08-12T21:35:24.336Z,21.07
2023-08-12T21:37:30.740Z,21.05
2023-08-12T21:39:53.770Z,21.04
2023-08-12T21:42:00.918Z,21.03
2023-08-12T21:44:07.341Z,21.02
2023-08-12T21:46:15.761Z,20.97
2023-08-12T21:48:21.555Z,20.94
2023-08-12T21:50:30.482Z,20.91
2023-08-12T21:52:37.563Z,20.86
2023-08-12T21:54:49.686Z,20.85
2023-08-12T21:56:56.304Z,20.84
2023-08-12T21:59:01.803Z,20.83
2023-08-12T22:01:06.445Z,20.83
2023-08-12T22:03:12.453Z,20.81
2023-08-12T22:05:15.957Z,20.82
2023-08-12T22:07:22.305Z,20.84
2023-08-12T22:09:29.468Z,20.83
2023-08-12T22:11:38.355Z,20.79
2023-08-12T22:13:50.520Z,20.78
2023-08-12T22:15:55.172Z,20.77
2023-08-12T22:17:58.329Z,20.76
2023-08-12T22:20:06.444Z,20.73
2023-08-12T22:22:23.340Z,20.73
2023-08-12T22:24:29.535Z,20.73
2023-08-12T22:26:32.400Z,20.71
2023-08-12T22:28:37.799Z,20.68
2023-08-12T22:30:44.885Z,20.66
2023-08-12T22:32:49.677Z,20.66
2023-08-12T22:34:56.493Z,20.67
2023-08-12T22:37:03.106Z,20.66
2023-08-12T22:39:11.044Z,20.65
2023-08-12T22:41:16.345Z,20.67
2023-08-12T22:43:22.782Z,20.68
2023-08-12T22:45:29.339Z,20.68
2023-08-12T22:47:43.366Z,20.69
2023-08-12T22:49:46.996Z,20.69
2023-08-12T22:51:58.491Z,20.69
2023-08-12T22:54:08.329Z,20.73
2023-08-12T22:56:18.083Z,20.75
2023-08-12T22:58:24.948Z,20.76
2023-08-12T23:00:29.642Z,20.76
2023-08-12T23:02:35.135Z,20.76
2023-08-12T23:04:38.459Z,20.77
2023-08-12T23:06:50.712Z,20.77
2023-08-12T23:08:55.614Z,20.79
2023-08-12T23:10:59.814Z,20.81
2023-08-12T23:13:05.849Z,20.83
2023-08-12T23:15:32.874Z,20.85
2023-08-12T23:17:36.507Z,20.88
2023-08-12T23:19:40.509Z,20.88
2023-08-12T23:21:48.522Z,20.89
2023-08-12T23:23:53.947Z,20.89
2023-08-12T23:26:01.542Z,20.89
2023-08-12T23:28:05.126Z,20.90
2023-08-12T23:30:33.890Z,20.92
2023-08-12T23:32:44.196Z,20.93
2023-08-12T23:34:49.841Z,20.93
2023-08-12T23:36:53.106Z,20.95
2023-08-12T23:38:57.240Z,20.95
2023-08-12T23:41:03.206Z,20.94
2023-08-12T23:43:08.877Z,20.92
2023-08-12T23:45:16.228Z,20.93
2023-08-12T23:47:20.296Z,20.93
2023-08-12T23:49:31.711Z,20.91
2023-08-12T23:51:42.114Z,20.88
2023-08-12T23:53:52.123Z,20.85
2023-08-12T23:55:57.554Z,20.85
2023-08-12T23:58:10.448Z,20.85
